sensor_id;sensor_type;location;lat;lon;timestamp;pressure;altitude;pressure_sealevel;temperature;humidity
47753;BME280;2038;51.728;6.674;2023-04-27T00:01:11;101360.22;;;5.83;93.93
47753;BME280;2038;51.728;6.674;2023-04-27T00:03:38;101362.47;;;5.80;94.13
47753;BME280;2038;51.728;6.674;2023-04-27T00:06:09;101359.03;;;5.79;94.48
47753;BME280;2038;51.728;6.674;2023-04-27T00:08:35;101367.06;;;5.84;94.55
47753;BME280;2038;51.728;6.674;2023-04-27T00:11:02;101367.53;;;5.71;94.98
47753;BME280;2038;51.728;6.674;2023-04-27T00:13:28;101363.41;;;5.63;96.30
47753;BME280;2038;51.728;6.674;2023-04-27T00:15:54;101361.94;;;5.56;95.91
47753;BME280;2038;51.728;6.674;2023-04-27T00:18:21;101368.66;;;5.47;97.52
47753;BME280;2038;51.728;6.674;2023-04-27T00:20:47;101374.00;;;5.42;97.33
47753;BME280;2038;51.728;6.674;2023-04-27T00:23:13;101375.22;;;5.37;96.61
47753;BME280;2038;51.728;6.674;2023-04-27T00:25:39;101368.66;;;5.30;97.07
47753;BME280;2038;51.728;6.674;2023-04-27T00:28:06;101377.03;;;5.21;98.90
47753;BME280;2038;51.728;6.674;2023-04-27T00:30:32;101376.56;;;5.25;98.73
47753;BME280;2038;51.728;6.674;2023-04-27T00:32:58;101378.50;;;5.27;98.16
47753;BME280;2038;51.728;6.674;2023-04-27T00:35:24;101374.50;;;5.29;98.03
47753;BME280;2038;51.728;6.674;2023-04-27T00:37:53;101378.50;;;5.27;98.00
47753;BME280;2038;51.728;6.674;2023-04-27T00:40:20;101384.16;;;5.25;97.94
47753;BME280;2038;51.728;6.674;2023-04-27T00:42:46;101388.31;;;5.07;99.33
47753;BME280;2038;51.728;6.674;2023-04-27T00:45:13;101385.94;;;5.00;99.42
47753;BME280;2038;51.728;6.674;2023-04-27T00:47:39;101388.47;;;5.00;99.01
47753;BME280;2038;51.728;6.674;2023-04-27T00:50:07;101382.69;;;5.01;98.75
47753;BME280;2038;51.728;6.674;2023-04-27T00:52:36;101391.16;;;5.01;98.45
47753;BME280;2038;51.728;6.674;2023-04-27T00:55:03;101391.16;;;5.01;98.71
47753;BME280;2038;51.728;6.674;2023-04-27T00:57:30;101388.31;;;4.90;100.00
47753;BME280;2038;51.728;6.674;2023-04-27T00:59:59;101391.84;;;4.66;100.00
47753;BME280;2038;51.728;6.674;2023-04-27T01:02:27;101390.81;;;4.55;100.00
47753;BME280;2038;51.728;6.674;2023-04-27T01:04:55;101397.44;;;4.46;100.00
47753;BME280;2038;51.728;6.674;2023-04-27T01:07:24;101398.75;;;4.34;100.00
47753;BME280;2038;51.728;6.674;2023-04-27T01:09:51;101394.91;;;4.38;100.00
47753;BME280;2038;51.728;6.674;2023-04-27T01:12:17;101393.31;;;4.47;100.00
47753;BME280;2038;51.728;6.674;2023-04-27T01:14:44;101398.94;;;4.44;100.00
47753;BME280;2038;51.728;6.674;2023-04-27T01:17:10;101397.66;;;4.15;100.00
47753;BME280;2038;51.728;6.674;2023-04-27T01:19:36;101394.88;;;4.20;100.00
47753;BME280;2038;51.728;6.674;2023-04-27T01:22:03;101388.00;;;4.11;100.00
47753;BME280;2038;51.728;6.674;2023-04-27T01:24:29;101392.91;;;4.18;100.00
47753;BME280;2038;51.728;6.674;2023-04-27T01:26:55;101396.63;;;4.21;100.00
47753;BME280;2038;51.728;6.674;2023-04-27T01:29:21;101396.06;;;4.24;100.00
47753;BME280;2038;51.728;6.674;2023-04-27T01:31:47;101400.97;;;4.31;100.00
47753;BME280;2038;51.728;6.674;2023-04-27T01:34:14;101399.22;;;4.39;100.00
47753;BME280;2038;51.728;6.674;2023-04-27T01:36:40;101400.06;;;4.31;100.00
47753;BME280;2038;51.728;6.674;2023-04-27T01:39:06;101400.34;;;4.16;100.00
47753;BME280;2038;51.728;6.674;2023-04-27T01:41:35;101396.28;;;4.10;100.00
47753;BME280;2038;51.728;6.674;2023-04-27T01:44:01;101391.84;;;4.07;100.00
47753;BME280;2038;51.728;6.674;2023-04-27T01:46:28;101393.63;;;4.08;100.00
47753;BME280;2038;51.728;6.674;2023-04-27T01:48:54;101393.47;;;4.07;100.00
47753;BME280;2038;51.728;6.674;2023-04-27T01:51:20;101396.63;;;4.13;100.00
47753;BME280;2038;51.728;6.674;2023-04-27T01:53:47;101399.16;;;4.13;100.00
47753;BME280;2038;51.728;6.674;2023-04-27T01:56:13;101393.94;;;4.11;100.00
47753;BME280;2038;51.728;6.674;2023-04-27T01:58:39;101404.63;;;4.17;100.00
47753;BME280;2038;51.728;6.674;2023-04-27T02:01:05;101410.44;;;4.16;100.00
47753;BME280;2038;51.728;6.674;2023-04-27T02:03:31;101405.06;;;4.13;100.00
47753;BME280;2038;51.728;6.674;2023-04-27T02:05:58;101410.97;;;4.05;100.00
47753;BME280;2038;51.728;6.674;2023-04-27T02:08:24;101405.16;;;3.98;100.00
47753;BME280;2038;51.728;6.674;2023-04-27T02:10:50;101396.69;;;3.97;100.00
47753;BME280;2038;51.728;6.674;2023-04-27T02:13:16;101388.81;;;3.94;100.00
47753;BME280;2038;51.728;6.674;2023-04-27T02:15:42;101390.88;;;3.90;100.00
47753;BME280;2038;51.728;6.674;2023-04-27T02:18:09;101391.47;;;3.87;100.00
47753;BME280;2038;51.728;6.674;2023-04-27T02:20:35;101386.41;;;3.87;100.00
47753;BME280;2038;51.728;6.674;2023-04-27T02:23:01;101398.25;;;3.80;100.00
47753;BME280;2038;51.728;6.674;2023-04-27T02:25:28;101390.56;;;3.87;100.00
47753;BME280;2038;51.728;6.674;2023-04-27T02:27:54;101393.81;;;3.86;100.00
47753;BME280;2038;51.728;6.674;2023-04-27T02:30:20;101391.88;;;3.83;100.00
47753;BME280;2038;51.728;6.674;2023-04-27T02:32:46;101393.94;;;3.78;100.00
47753;BME280;2038;51.728;6.674;2023-04-27T02:35:12;101395.38;;;3.68;100.00
47753;BME280;2038;51.728;6.674;2023-04-27T02:37:39;101394.06;;;3.71;100.00
47753;BME280;2038;51.728;6.674;2023-04-27T02:40:08;101393.41;;;3.65;100.00
47753;BME280;2038;51.728;6.674;2023-04-27T02:42:34;101393.41;;;3.65;100.00
47753;BME280;2038;51.728;6.674;2023-04-27T02:45:04;101380.97;;;3.67;100.00
47753;BME280;2038;51.728;6.674;2023-04-27T02:47:31;101380.59;;;3.80;100.00
47753;BME280;2038;51.728;6.674;2023-04-27T02:49:58;101384.13;;;3.73;100.00
47753;BME280;2038;51.728;6.674;2023-04-27T02:52:24;101378.47;;;3.67;100.00
47753;BME280;2038;51.728;6.674;2023-04-27T02:54:50;101378.88;;;3.63;100.00
47753;BME280;2038;51.728;6.674;2023-04-27T02:57:16;101378.25;;;3.81;100.00
47753;BME280;2038;51.728;6.674;2023-04-27T02:59:43;101372.78;;;3.94;100.00
47753;BME280;2038;51.728;6.674;2023-04-27T03:02:09;101380.47;;;3.87;100.00
47753;BME280;2038;51.728;6.674;2023-04-27T03:04:35;101380.66;;;3.88;100.00
47753;BME280;2038;51.728;6.674;2023-04-27T03:07:03;101375.47;;;3.95;100.00
47753;BME280;2038;51.728;6.674;2023-04-27T03:09:29;101367.34;;;4.06;100.00
47753;BME280;2038;51.728;6.674;2023-04-27T03:11:55;101369.28;;;4.00;100.00
47753;BME280;2038;51.728;6.674;2023-04-27T03:14:22;101373.44;;;4.00;100.00
47753;BME280;2038;51.728;6.674;2023-04-27T03:16:48;101372.47;;;4.23;100.00
47753;BME280;2038;51.728;6.674;2023-04-27T03:19:14;101371.56;;;4.23;100.00
47753;BME280;2038;51.728;6.674;2023-04-27T03:21:41;101366.53;;;4.23;100.00
47753;BME280;2038;51.728;6.674;2023-04-27T03:24:07;101369.31;;;4.17;100.00
47753;BME280;2038;51.728;6.674;2023-04-27T03:26:34;101365.47;;;4.12;100.00
47753;BME280;2038;51.728;6.674;2023-04-27T03:29:00;101367.84;;;4.19;100.00
47753;BME280;2038;51.728;6.674;2023-04-27T03:31:26;101379.31;;;4.24;100.00
47753;BME280;2038;51.728;6.674;2023-04-27T03:33:52;101374.09;;;4.23;100.00
47753;BME280;2038;51.728;6.674;2023-04-27T03:36:18;101379.31;;;4.24;100.00
47753;BME280;2038;51.728;6.674;2023-04-27T03:38:45;101384.91;;;4.22;100.00
47753;BME280;2038;51.728;6.674;2023-04-27T03:41:11;101375.13;;;4.16;100.00
47753;BME280;2038;51.728;6.674;2023-04-27T03:43:37;101380.44;;;4.11;100.00
47753;BME280;2038;51.728;6.674;2023-04-27T03:46:03;101367.38;;;4.15;100.00
47753;BME280;2038;51.728;6.674;2023-04-27T03:48:30;101380.00;;;4.15;100.00
47753;BME280;2038;51.728;6.674;2023-04-27T03:50:56;101373.16;;;4.14;100.00
47753;BME280;2038;51.728;6.674;2023-04-27T03:53:22;101387.09;;;4.10;100.00
47753;BME280;2038;51.728;6.674;2023-04-27T03:55:48;101383.34;;;3.98;100.00
47753;BME280;2038;51.728;6.674;2023-04-27T03:58:15;101381.97;;;3.93;100.00
47753;BME280;2038;51.728;6.674;2023-04-27T04:00:42;101389.53;;;3.93;100.00
47753;BME280;2038;51.728;6.674;2023-04-27T04:03:08;101400.06;;;3.89;100.00
47753;BME280;2038;51.728;6.674;2023-04-27T04:05:34;101405.69;;;3.87;100.00
47753;BME280;2038;51.728;6.674;2023-04-27T04:08:01;101407.47;;;3.88;100.00
47753;BME280;2038;51.728;6.674;2023-04-27T04:10:27;101412.34;;;3.86;100.00
47753;BME280;2038;51.728;6.674;2023-04-27T04:12:53;101398.59;;;3.91;100.00
47753;BME280;2038;51.728;6.674;2023-04-27T04:15:19;101401.06;;;3.83;100.00
47753;BME280;2038;51.728;6.674;2023-04-27T04:17:46;101408.50;;;3.81;100.00
47753;BME280;2038;51.728;6.674;2023-04-27T04:20:14;101399.69;;;3.77;100.00
47753;BME280;2038;51.728;6.674;2023-04-27T04:22:40;101401.38;;;3.77;100.00
47753;BME280;2038;51.728;6.674;2023-04-27T04:25:08;101410.13;;;3.81;100.00
47753;BME280;2038;51.728;6.674;2023-04-27T04:27:34;101415.41;;;3.75;100.00
47753;BME280;2038;51.728;6.674;2023-04-27T04:30:01;101413.78;;;3.75;100.00
47753;BME280;2038;51.728;6.674;2023-04-27T04:32:30;101405.16;;;3.73;100.00
47753;BME280;2038;51.728;6.674;2023-04-27T04:34:58;101412.72;;;3.73;100.00
47753;BME280;2038;51.728;6.674;2023-04-27T04:37:26;101414.81;;;3.77;100.00
47753;BME280;2038;51.728;6.674;2023-04-27T04:39:53;101419.25;;;3.71;100.00
47753;BME280;2038;51.728;6.674;2023-04-27T04:42:19;101416.75;;;3.71;100.00
47753;BME280;2038;51.728;6.674;2023-04-27T04:44:45;101423.19;;;3.85;100.00
47753;BME280;2038;51.728;6.674;2023-04-27T04:47:12;101421.00;;;3.88;100.00
47753;BME280;2038;51.728;6.674;2023-04-27T04:49:38;101419.66;;;3.92;100.00
47753;BME280;2038;51.728;6.674;2023-04-27T04:52:04;101418.22;;;4.02;100.00
47753;BME280;2038;51.728;6.674;2023-04-27T04:54:31;101419.38;;;4.30;100.00
47753;BME280;2038;51.728;6.674;2023-04-27T04:56:57;101423.16;;;4.51;100.00
47753;BME280;2038;51.728;6.674;2023-04-27T04:59:24;101417.97;;;4.58;100.00
47753;BME280;2038;51.728;6.674;2023-04-27T05:01:51;101426.03;;;4.71;100.00
47753;BME280;2038;51.728;6.674;2023-04-27T05:04:20;101428.09;;;4.75;100.00
47753;BME280;2038;51.728;6.674;2023-04-27T05:06:47;101424.88;;;4.85;100.00
47753;BME280;2038;51.728;6.674;2023-04-27T05:09:13;101421.59;;;4.94;100.00
47753;BME280;2038;51.728;6.674;2023-04-27T05:11:40;101428.59;;;5.05;100.00
47753;BME280;2038;51.728;6.674;2023-04-27T05:14:06;101428.47;;;5.21;100.00
47753;BME280;2038;51.728;6.674;2023-04-27T05:16:32;101432.91;;;5.32;99.72
47753;BME280;2038;51.728;6.674;2023-04-27T05:18:58;101437.94;;;5.49;99.61
47753;BME280;2038;51.728;6.674;2023-04-27T05:21:25;101447.00;;;5.56;99.26
47753;BME280;2038;51.728;6.674;2023-04-27T05:23:51;101444.59;;;5.75;99.50
47753;BME280;2038;51.728;6.674;2023-04-27T05:26:17;101447.28;;;5.93;99.52
47753;BME280;2038;51.728;6.674;2023-04-27T05:28:44;101449.78;;;5.85;99.08
47753;BME280;2038;51.728;6.674;2023-04-27T05:31:11;101450.09;;;5.96;98.62
47753;BME280;2038;51.728;6.674;2023-04-27T05:33:38;101453.16;;;6.11;98.99
47753;BME280;2038;51.728;6.674;2023-04-27T05:36:04;101458.19;;;6.20;98.54
47753;BME280;2038;51.728;6.674;2023-04-27T05:38:30;101456.50;;;6.37;97.46
47753;BME280;2038;51.728;6.674;2023-04-27T05:40:58;101452.44;;;6.67;97.57
47753;BME280;2038;51.728;6.674;2023-04-27T05:43:25;101449.78;;;6.92;97.32
47753;BME280;2038;51.728;6.674;2023-04-27T05:45:52;101452.25;;;7.20;96.12
47753;BME280;2038;51.728;6.674;2023-04-27T05:48:18;101460.63;;;7.37;94.08
47753;BME280;2038;51.728;6.674;2023-04-27T05:50:45;101454.63;;;7.56;93.48
47753;BME280;2038;51.728;6.674;2023-04-27T05:53:11;101459.63;;;7.64;94.23
47753;BME280;2038;51.728;6.674;2023-04-27T05:55:37;101461.34;;;7.74;93.53
47753;BME280;2038;51.728;6.674;2023-04-27T05:58:04;101465.03;;;7.59;91.42
47753;BME280;2038;51.728;6.674;2023-04-27T06:00:30;101460.75;;;7.58;92.06
47753;BME280;2038;51.728;6.674;2023-04-27T06:02:56;101471.97;;;7.51;92.33
47753;BME280;2038;51.728;6.674;2023-04-27T06:05:22;101471.00;;;7.59;94.29
47753;BME280;2038;51.728;6.674;2023-04-27T06:07:49;101474.63;;;7.71;93.30
47753;BME280;2038;51.728;6.674;2023-04-27T06:10:15;101477.44;;;7.74;92.79
47753;BME280;2038;51.728;6.674;2023-04-27T06:12:41;101477.94;;;7.70;93.79
47753;BME280;2038;51.728;6.674;2023-04-27T06:15:08;101478.19;;;7.54;91.05
47753;BME280;2038;51.728;6.674;2023-04-27T06:17:38;101475.19;;;7.59;91.13
47753;BME280;2038;51.728;6.674;2023-04-27T06:20:05;101465.66;;;7.56;90.60
47753;BME280;2038;51.728;6.674;2023-04-27T06:22:32;101469.59;;;7.52;90.06
47753;BME280;2038;51.728;6.674;2023-04-27T06:24:58;101470.22;;;7.50;90.44
47753;BME280;2038;51.728;6.674;2023-04-27T06:27:25;101470.66;;;7.65;90.90
47753;BME280;2038;51.728;6.674;2023-04-27T06:29:51;101472.41;;;7.84;91.13
47753;BME280;2038;51.728;6.674;2023-04-27T06:32:17;101463.75;;;7.82;90.10
47753;BME280;2038;51.728;6.674;2023-04-27T06:34:44;101462.91;;;7.82;89.68
47753;BME280;2038;51.728;6.674;2023-04-27T06:37:10;101468.47;;;7.88;89.62
47753;BME280;2038;51.728;6.674;2023-04-27T06:39:36;101466.22;;;7.91;89.84
47753;BME280;2038;51.728;6.674;2023-04-27T06:42:02;101467.44;;;8.15;90.17
47753;BME280;2038;51.728;6.674;2023-04-27T06:44:29;101461.69;;;8.36;90.11
47753;BME280;2038;51.728;6.674;2023-04-27T06:46:55;101464.13;;;8.44;89.67
47753;BME280;2038;51.728;6.674;2023-04-27T06:49:21;101457.91;;;8.51;89.02
47753;BME280;2038;51.728;6.674;2023-04-27T06:51:48;101458.19;;;8.54;89.46
47753;BME280;2038;51.728;6.674;2023-04-27T06:54:14;101446.25;;;8.73;89.69
47753;BME280;2038;51.728;6.674;2023-04-27T06:56:41;101443.47;;;8.80;90.51
47753;BME280;2038;51.728;6.674;2023-04-27T06:59:07;101446.75;;;9.10;88.97
47753;BME280;2038;51.728;6.674;2023-04-27T07:01:34;101445.59;;;9.16;87.04
47753;BME280;2038;51.728;6.674;2023-04-27T07:04:00;101439.88;;;9.29;85.40
47753;BME280;2038;51.728;6.674;2023-04-27T07:06:26;101446.47;;;9.27;84.51
47753;BME280;2038;51.728;6.674;2023-04-27T07:08:53;101447.13;;;9.24;82.78
47753;BME280;2038;51.728;6.674;2023-04-27T07:11:19;101452.59;;;9.29;82.30
47753;BME280;2038;51.728;6.674;2023-04-27T07:13:46;101453.22;;;9.26;81.10
47753;BME280;2038;51.728;6.674;2023-04-27T07:16:12;101451.44;;;9.25;82.73
47753;BME280;2038;51.728;6.674;2023-04-27T07:18:39;101442.72;;;9.54;82.65
47753;BME280;2038;51.728;6.674;2023-04-27T07:21:06;101453.66;;;9.63;82.48
47753;BME280;2038;51.728;6.674;2023-04-27T07:23:32;101451.75;;;9.60;81.57
47753;BME280;2038;51.728;6.674;2023-04-27T07:25:58;101449.69;;;9.66;81.40
47753;BME280;2038;51.728;6.674;2023-04-27T07:28:26;101450.75;;;9.58;80.43
47753;BME280;2038;51.728;6.674;2023-04-27T07:30:53;101458.94;;;9.76;78.48
47753;BME280;2038;51.728;6.674;2023-04-27T07:33:19;101455.88;;;9.80;76.65
47753;BME280;2038;51.728;6.674;2023-04-27T07:35:45;101453.81;;;9.86;77.63
47753;BME280;2038;51.728;6.674;2023-04-27T07:38:11;101464.91;;;9.86;76.29
47753;BME280;2038;51.728;6.674;2023-04-27T07:40:38;101468.72;;;9.81;76.02
47753;BME280;2038;51.728;6.674;2023-04-27T07:43:04;101470.09;;;9.88;77.50
47753;BME280;2038;51.728;6.674;2023-04-27T07:45:30;101465.75;;;9.97;78.23
47753;BME280;2038;51.728;6.674;2023-04-27T07:48:00;101474.38;;;9.99;77.56
47753;BME280;2038;51.728;6.674;2023-04-27T07:50:28;101473.25;;;9.96;76.32
47753;BME280;2038;51.728;6.674;2023-04-27T07:52:57;101472.34;;;9.95;74.81
47753;BME280;2038;51.728;6.674;2023-04-27T07:55:24;101470.47;;;9.93;74.68
47753;BME280;2038;51.728;6.674;2023-04-27T07:57:55;101469.78;;;10.05;76.02
47753;BME280;2038;51.728;6.674;2023-04-27T08:00:22;101463.94;;;10.06;74.15
47753;BME280;2038;51.728;6.674;2023-04-27T08:02:51;101468.22;;;10.07;72.05
47753;BME280;2038;51.728;6.674;2023-04-27T08:05:18;101476.53;;;10.15;72.70
47753;BME280;2038;51.728;6.674;2023-04-27T08:07:45;101466.63;;;10.29;73.87
47753;BME280;2038;51.728;6.674;2023-04-27T08:10:12;101462.34;;;10.40;72.74
47753;BME280;2038;51.728;6.674;2023-04-27T08:12:39;101466.16;;;10.45;73.18
47753;BME280;2038;51.728;6.674;2023-04-27T08:15:06;101459.84;;;10.52;72.87
47753;BME280;2038;51.728;6.674;2023-04-27T08:17:33;101462.88;;;10.36;73.23
47753;BME280;2038;51.728;6.674;2023-04-27T08:20:01;101458.88;;;10.50;75.68
47753;BME280;2038;51.728;6.674;2023-04-27T08:22:27;101454.09;;;10.43;72.15
47753;BME280;2038;51.728;6.674;2023-04-27T08:24:54;101453.25;;;10.54;72.93
47753;BME280;2038;51.728;6.674;2023-04-27T08:27:20;101454.03;;;10.64;72.39
47753;BME280;2038;51.728;6.674;2023-04-27T08:29:47;101459.44;;;10.79;69.93
47753;BME280;2038;51.728;6.674;2023-04-27T08:32:14;101455.13;;;10.90;72.04
47753;BME280;2038;51.728;6.674;2023-04-27T08:34:40;101463.31;;;10.86;71.21
47753;BME280;2038;51.728;6.674;2023-04-27T08:37:07;101455.25;;;10.91;72.62
47753;BME280;2038;51.728;6.674;2023-04-27T08:39:34;101460.03;;;10.98;71.25
47753;BME280;2038;51.728;6.674;2023-04-27T08:42:00;101453.28;;;11.10;72.26
47753;BME280;2038;51.728;6.674;2023-04-27T08:44:26;101459.28;;;11.11;69.31
47753;BME280;2038;51.728;6.674;2023-04-27T08:46:52;101464.41;;;11.22;69.48
47753;BME280;2038;51.728;6.674;2023-04-27T08:49:18;101462.41;;;11.30;70.07
47753;BME280;2038;51.728;6.674;2023-04-27T08:51:45;101457.66;;;11.23;66.26
47753;BME280;2038;51.728;6.674;2023-04-27T08:54:11;101455.53;;;11.29;68.58
47753;BME280;2038;51.728;6.674;2023-04-27T08:56:38;101456.22;;;11.26;65.84
47753;BME280;2038;51.728;6.674;2023-04-27T08:59:13;101460.22;;;11.35;66.36
47753;BME280;2038;51.728;6.674;2023-04-27T09:01:47;101466.97;;;11.34;65.35
47753;BME280;2038;51.728;6.674;2023-04-27T09:04:14;101461.19;;;11.25;66.20
47753;BME280;2038;51.728;6.674;2023-04-27T09:06:41;101460.97;;;11.45;67.74
47753;BME280;2038;51.728;6.674;2023-04-27T09:09:07;101452.66;;;11.48;67.08
47753;BME280;2038;51.728;6.674;2023-04-27T09:11:38;101444.13;;;11.59;67.67
47753;BME280;2038;51.728;6.674;2023-04-27T09:14:20;101442.78;;;11.64;66.74
47753;BME280;2038;51.728;6.674;2023-04-27T09:16:56;101441.03;;;11.63;66.32
47753;BME280;2038;51.728;6.674;2023-04-27T09:19:28;101438.56;;;11.64;66.18
47753;BME280;2038;51.728;6.674;2023-04-27T09:22:06;101446.44;;;11.56;64.59
47753;BME280;2038;51.728;6.674;2023-04-27T09:24:36;101446.66;;;11.70;66.78
47753;BME280;2038;51.728;6.674;2023-04-27T09:27:03;101444.13;;;11.70;65.21
47753;BME280;2038;51.728;6.674;2023-04-27T09:29:35;101445.34;;;11.76;66.03
47753;BME280;2038;51.728;6.674;2023-04-27T09:32:16;101437.00;;;11.90;67.64
47753;BME280;2038;51.728;6.674;2023-04-27T09:34:45;101435.69;;;11.95;63.50
47753;BME280;2038;51.728;6.674;2023-04-27T09:37:11;101436.78;;;12.35;63.28
47753;BME280;2038;51.728;6.674;2023-04-27T09:39:39;101422.63;;;12.40;61.60
47753;BME280;2038;51.728;6.674;2023-04-27T09:42:07;101429.72;;;12.44;63.03
47753;BME280;2038;51.728;6.674;2023-04-27T09:44:34;101433.25;;;12.21;61.80
47753;BME280;2038;51.728;6.674;2023-04-27T09:47:01;101424.41;;;12.41;62.63
47753;BME280;2038;51.728;6.674;2023-04-27T09:49:27;101430.25;;;12.27;59.53
47753;BME280;2038;51.728;6.674;2023-04-27T09:51:57;101420.13;;;12.28;60.26
47753;BME280;2038;51.728;6.674;2023-04-27T09:54:26;101418.41;;;12.40;61.26
47753;BME280;2038;51.728;6.674;2023-04-27T09:57:21;101413.03;;;12.49;62.11
47753;BME280;2038;51.728;6.674;2023-04-27T10:06:31;101406.56;;;12.79;63.04
47753;BME280;2038;51.728;6.674;2023-04-27T10:09:06;101410.75;;;12.65;60.51
47753;BME280;2038;51.728;6.674;2023-04-27T10:11:43;101399.78;;;12.79;61.32
47753;BME280;2038;51.728;6.674;2023-04-27T10:14:16;101398.03;;;12.91;61.23
47753;BME280;2038;51.728;6.674;2023-04-27T10:16:52;101396.38;;;12.92;60.74
47753;BME280;2038;51.728;6.674;2023-04-27T10:19:20;101391.44;;;12.95;60.15
47753;BME280;2038;51.728;6.674;2023-04-27T10:22:00;101388.59;;;13.03;61.20
47753;BME280;2038;51.728;6.674;2023-04-27T10:24:39;101390.03;;;13.11;62.45
47753;BME280;2038;51.728;6.674;2023-04-27T10:27:09;101390.53;;;13.19;62.00
47753;BME280;2038;51.728;6.674;2023-04-27T10:29:42;101378.81;;;13.23;60.80
47753;BME280;2038;51.728;6.674;2023-04-27T10:32:12;101382.75;;;13.31;61.25
47753;BME280;2038;51.728;6.674;2023-04-27T10:34:44;101383.41;;;13.41;59.88
47753;BME280;2038;51.728;6.674;2023-04-27T10:37:12;101378.19;;;13.53;61.57
47753;BME280;2038;51.728;6.674;2023-04-27T10:39:40;101378.72;;;13.47;57.46
47753;BME280;2038;51.728;6.674;2023-04-27T10:42:08;101382.94;;;13.47;57.86
47753;BME280;2038;51.728;6.674;2023-04-27T10:44:36;101383.59;;;13.44;58.27
47753;BME280;2038;51.728;6.674;2023-04-27T10:47:16;101383.31;;;13.53;59.63
47753;BME280;2038;51.728;6.674;2023-04-27T10:49:47;101376.81;;;13.45;53.18
47753;BME280;2038;51.728;6.674;2023-04-27T10:52:13;101374.47;;;13.48;57.79
47753;BME280;2038;51.728;6.674;2023-04-27T10:54:45;101377.91;;;13.48;57.29
47753;BME280;2038;51.728;6.674;2023-04-27T10:57:11;101385.50;;;13.47;56.51
47753;BME280;2038;51.728;6.674;2023-04-27T10:59:49;101379.09;;;13.53;58.28
47753;BME280;2038;51.728;6.674;2023-04-27T11:02:17;101376.31;;;13.64;59.57
47753;BME280;2038;51.728;6.674;2023-04-27T11:04:50;101377.41;;;13.54;55.96
47753;BME280;2038;51.728;6.674;2023-04-27T11:07:27;101368.81;;;13.67;58.45
47753;BME280;2038;51.728;6.674;2023-04-27T11:09:54;101373.66;;;13.75;56.55
47753;BME280;2038;51.728;6.674;2023-04-27T11:12:21;101366.13;;;13.78;55.46
47753;BME280;2038;51.728;6.674;2023-04-27T11:14:47;101360.72;;;13.87;57.69
47753;BME280;2038;51.728;6.674;2023-04-27T11:17:13;101363.63;;;13.93;55.38
47753;BME280;2038;51.728;6.674;2023-04-27T11:19:49;101369.78;;;13.82;52.81
47753;BME280;2038;51.728;6.674;2023-04-27T11:22:15;101375.31;;;13.75;52.38
47753;BME280;2038;51.728;6.674;2023-04-27T11:24:49;101364.06;;;13.73;55.78
47753;BME280;2038;51.728;6.674;2023-04-27T11:27:17;101369.91;;;13.70;55.51
47753;BME280;2038;51.728;6.674;2023-04-27T11:29:47;101357.69;;;13.66;57.77
47753;BME280;2038;51.728;6.674;2023-04-27T11:32:20;101360.97;;;13.64;55.29
47753;BME280;2038;51.728;6.674;2023-04-27T11:34:51;101354.44;;;13.69;57.02
47753;BME280;2038;51.728;6.674;2023-04-27T11:37:23;101353.44;;;13.80;56.69
47753;BME280;2038;51.728;6.674;2023-04-27T11:39:52;101359.06;;;13.74;53.88
47753;BME280;2038;51.728;6.674;2023-04-27T11:42:27;101366.88;;;13.63;52.42
47753;BME280;2038;51.728;6.674;2023-04-27T11:44:55;101360.16;;;13.65;56.62
47753;BME280;2038;51.728;6.674;2023-04-27T11:47:24;101360.13;;;13.78;57.63
47753;BME280;2038;51.728;6.674;2023-04-27T11:49:57;101357.56;;;13.78;54.37
47753;BME280;2038;51.728;6.674;2023-04-27T11:52:34;101351.56;;;13.77;54.95
47753;BME280;2038;51.728;6.674;2023-04-27T11:55:02;101343.50;;;13.71;53.78
47753;BME280;2038;51.728;6.674;2023-04-27T11:57:31;101346.66;;;13.67;53.45
47753;BME280;2038;51.728;6.674;2023-04-27T11:59:59;101329.81;;;13.57;50.74
47753;BME280;2038;51.728;6.674;2023-04-27T12:02:29;101336.63;;;13.57;52.25
47753;BME280;2038;51.728;6.674;2023-04-27T12:04:57;101320.56;;;13.59;55.23
47753;BME280;2038;51.728;6.674;2023-04-27T12:07:24;101330.91;;;13.61;53.96
47753;BME280;2038;51.728;6.674;2023-04-27T12:09:50;101327.59;;;13.77;55.29
47753;BME280;2038;51.728;6.674;2023-04-27T12:12:16;101326.81;;;13.78;52.33
47753;BME280;2038;51.728;6.674;2023-04-27T12:14:44;101318.53;;;13.82;54.29
47753;BME280;2038;51.728;6.674;2023-04-27T12:17:10;101324.66;;;13.84;55.69
47753;BME280;2038;51.728;6.674;2023-04-27T12:19:37;101324.41;;;13.94;55.07
47753;BME280;2038;51.728;6.674;2023-04-27T12:22:03;101319.06;;;14.04;55.96
47753;BME280;2038;51.728;6.674;2023-04-27T12:24:30;101322.31;;;14.01;53.00
47753;BME280;2038;51.728;6.674;2023-04-27T12:26:57;101318.81;;;14.14;53.88
47753;BME280;2038;51.728;6.674;2023-04-27T12:29:24;101312.72;;;14.27;52.38
47753;BME280;2038;51.728;6.674;2023-04-27T12:31:50;101316.75;;;14.36;52.61
47753;BME280;2038;51.728;6.674;2023-04-27T12:34:18;101316.69;;;14.35;51.84
47753;BME280;2038;51.728;6.674;2023-04-27T12:36:44;101311.47;;;14.48;52.41
47753;BME280;2038;51.728;6.674;2023-04-27T12:39:16;101308.03;;;14.47;51.72
47753;BME280;2038;51.728;6.674;2023-04-27T12:41:44;101312.78;;;14.41;52.55
47753;BME280;2038;51.728;6.674;2023-04-27T12:44:12;101309.16;;;14.10;51.86
47753;BME280;2038;51.728;6.674;2023-04-27T12:46:40;101309.72;;;14.19;52.76
47753;BME280;2038;51.728;6.674;2023-04-27T12:49:08;101299.97;;;14.14;54.14
47753;BME280;2038;51.728;6.674;2023-04-27T12:51:36;101303.47;;;14.01;52.53
47753;BME280;2038;51.728;6.674;2023-04-27T12:54:03;101312.97;;;13.89;55.65
47753;BME280;2038;51.728;6.674;2023-04-27T12:56:30;101304.19;;;13.98;52.83
47753;BME280;2038;51.728;6.674;2023-04-27T12:58:57;101300.69;;;14.11;52.70
47753;BME280;2038;51.728;6.674;2023-04-27T13:01:24;101301.03;;;14.17;53.82
47753;BME280;2038;51.728;6.674;2023-04-27T13:04:02;101302.19;;;14.22;53.65
47753;BME280;2038;51.728;6.674;2023-04-27T13:06:30;101301.34;;;14.36;52.21
47753;BME280;2038;51.728;6.674;2023-04-27T13:08:57;101297.75;;;14.47;52.98
47753;BME280;2038;51.728;6.674;2023-04-27T13:11:24;101289.72;;;14.56;54.44